Time;durP1;ratioP1;P1;durP2;ratioP2;P2;SDS_P1;SDS_P2;PMS_P1;PMS_P2;Temp;Humidity;BMP_temperature;BMP_pressure;BME280_temperature;BME280_humidity;BME280_pressure;Samples;Min_cycle;Max_cycle;Signal;HPM_P1;HPM_P2
2021/08/30 00:01:58;;;;;;;2.60;2.10;;;;;;;;;;5014473;28;20443;-64
2021/08/30 00:04:24;;;;;;;3.20;2.23;;;;;;;;;;5011201;28;20458;-64
2021/08/30 00:06:50;;;;;;;3.80;2.90;;;;;;;;;;5014484;28;20404;-63
2021/08/30 00:09:16;;;;;;;4.80;2.33;;;;;;;;;;5014119;28;20422;-64
2021/08/30 00:11:42;;;;;;;4.43;2.70;;;;;;;;;;5013165;28;20431;-63
2021/08/30 00:14:08;;;;;;;3.60;2.70;;;;;;;;;;5013333;28;20891;-63
2021/08/30 00:16:34;;;;;;;3.27;2.63;;;;;;;;;;5014649;28;20466;-63
2021/08/30 00:19:00;;;;;;;4.00;2.50;;;;;;;;;;5013757;28;20438;-64
2021/08/30 00:21:26;;;;;;;3.07;2.20;;;;;;;;;;5013958;28;20399;-62
2021/08/30 00:23:52;;;;;;;3.23;2.53;;;;;;;;;;5010405;28;20498;-62
2021/08/30 00:26:18;;;;;;;2.60;2.37;;;;;;;;;;5013951;28;20947;-63
2021/08/30 00:28:44;;;;;;;2.97;2.30;;;;;;;;;;5013808;28;20455;-63
2021/08/30 00:31:10;;;;;;;3.20;2.13;;;;;;;;;;5014062;28;20432;-62
2021/08/30 00:33:38;;;;;;;2.43;2.23;;;;;;;;;;5006848;28;20801;-62
2021/08/30 00:36:04;;;;;;;3.77;2.67;;;;;;;;;;4994201;28;20412;-62
2021/08/30 00:38:30;;;;;;;3.97;3.07;;;;;;;;;;4994057;28;20817;-62
2021/08/30 00:40:56;;;;;;;3.40;2.33;;;;;;;;;;4994570;28;20770;-63
2021/08/30 00:43:22;;;;;;;7.53;2.97;;;;;;;;;;4997993;28;20466;-62
2021/08/30 00:45:48;;;;;;;3.30;2.57;;;;;;;;;;5013585;28;20428;-63
2021/08/30 00:48:14;;;;;;;3.20;2.33;;;;;;;;;;5013784;28;20808;-62
2021/08/30 00:50:40;;;;;;;3.90;3.00;;;;;;;;;;5013540;28;20403;-62
2021/08/30 00:53:06;;;;;;;3.30;2.53;;;;;;;;;;5011455;28;20400;-63
2021/08/30 00:55:36;;;;;;;2.53;1.93;;;;;;;;;;4993798;28;20523;-63
2021/08/30 00:58:02;;;;;;;3.20;2.53;;;;;;;;;;4997477;28;20972;-62
2021/08/30 01:00:29;;;;;;;3.37;2.27;;;;;;;;;;4994309;28;20760;-63
2021/08/30 01:02:55;;;;;;;2.93;2.30;;;;;;;;;;4993706;28;20407;-64
2021/08/30 01:05:21;;;;;;;3.30;2.50;;;;;;;;;;4993953;28;20420;-62
2021/08/30 01:07:47;;;;;;;4.00;2.80;;;;;;;;;;4993741;28;20464;-63
2021/08/30 01:10:17;;;;;;;3.60;2.13;;;;;;;;;;4993542;28;20413;-63
2021/08/30 01:12:46;;;;;;;2.20;1.80;;;;;;;;;;4993559;28;20528;-62
2021/08/30 01:15:24;;;;;;;2.63;2.27;;;;;;;;;;5006839;28;20423;-64
2021/08/30 01:17:52;;;;;;;5.10;2.67;;;;;;;;;;5017149;28;20796;-62
2021/08/30 01:20:29;;;;;;;3.77;2.40;;;;;;;;;;5017622;28;20400;-64
2021/08/30 01:22:57;;;;;;;4.70;3.27;;;;;;;;;;5015253;28;20529;-62
2021/08/30 01:25:23;;;;;;;3.30;2.20;;;;;;;;;;5017398;28;20426;-63
2021/08/30 01:27:50;;;;;;;2.80;2.03;;;;;;;;;;5016153;28;20426;-62
2021/08/30 01:30:17;;;;;;;4.60;2.33;;;;;;;;;;5015891;28;20877;-62
2021/08/30 01:32:46;;;;;;;3.70;2.70;;;;;;;;;;5015551;28;20436;-62
2021/08/30 01:35:17;;;;;;;2.60;1.90;;;;;;;;;;4997264;28;20420;-63
2021/08/30 01:37:44;;;;;;;3.00;2.60;;;;;;;;;;4996188;28;20412;-62
2021/08/30 01:40:11;;;;;;;3.20;2.23;;;;;;;;;;5017107;28;20803;-62
2021/08/30 01:42:39;;;;;;;3.23;2.67;;;;;;;;;;5016499;28;20400;-62
2021/08/30 01:45:07;;;;;;;3.87;3.07;;;;;;;;;;4996461;28;20510;-63
2021/08/30 01:47:33;;;;;;;3.47;2.20;;;;;;;;;;4997243;28;20894;-64
2021/08/30 01:50:01;;;;;;;3.80;2.50;;;;;;;;;;5014983;28;20488;-63
2021/08/30 01:52:33;;;;;;;2.43;2.00;;;;;;;;;;5016802;28;20444;-63
2021/08/30 01:55:41;;;;;;;3.73;2.77;;;;;;;;;;4998117;28;20429;-63
2021/08/30 02:03:18;;;;;;;3.60;2.63;;;;;;;;;;5014966;28;20425;-63
2021/08/30 02:05:46;;;;;;;3.97;3.00;;;;;;;;;;5016831;28;20487;-63
2021/08/30 02:08:15;;;;;;;3.20;2.60;;;;;;;;;;5015704;28;20473;-63
2021/08/30 02:10:41;;;;;;;4.27;2.23;;;;;;;;;;5016678;28;20404;-63
2021/08/30 02:13:08;;;;;;;5.70;2.60;;;;;;;;;;5009613;28;20430;-63
2021/08/30 02:15:34;;;;;;;4.30;2.27;;;;;;;;;;5016519;28;20420;-65
2021/08/30 02:18:03;;;;;;;2.40;1.63;;;;;;;;;;5015924;28;20451;-64
2021/08/30 02:20:29;;;;;;;3.67;2.50;;;;;;;;;;5014880;28;20458;-63
2021/08/30 02:22:57;;;;;;;3.30;2.57;;;;;;;;;;4996586;28;20922;-65
2021/08/30 02:25:23;;;;;;;3.53;2.60;;;;;;;;;;5008806;28;20495;-64
2021/08/30 02:27:53;;;;;;;2.97;2.43;;;;;;;;;;5015541;28;20427;-64
2021/08/30 02:30:23;;;;;;;4.57;3.07;;;;;;;;;;5015215;28;20432;-63
2021/08/30 02:32:50;;;;;;;4.00;2.27;;;;;;;;;;5015899;28;20751;-64
2021/08/30 02:35:19;;;;;;;3.60;2.70;;;;;;;;;;5013222;28;20428;-64
2021/08/30 02:37:45;;;;;;;7.13;2.70;;;;;;;;;;5015328;28;20901;-64
2021/08/30 02:40:13;;;;;;;3.80;2.83;;;;;;;;;;5014635;28;20458;-63
2021/08/30 02:42:40;;;;;;;5.60;3.17;;;;;;;;;;4997927;28;20416;-63
2021/08/30 02:45:07;;;;;;;3.20;2.73;;;;;;;;;;5009707;28;20464;-63
2021/08/30 02:47:34;;;;;;;3.47;2.83;;;;;;;;;;4995966;28;20863;-64
2021/08/30 02:50:01;;;;;;;5.70;3.07;;;;;;;;;;4995955;28;20463;-63
2021/08/30 02:52:27;;;;;;;5.20;2.80;;;;;;;;;;5000127;28;20507;-63
2021/08/30 02:54:54;;;;;;;4.00;2.50;;;;;;;;;;5014952;28;20436;-63
2021/08/30 02:57:21;;;;;;;5.90;3.50;;;;;;;;;;5015579;28;20562;-64
2021/08/30 02:59:51;;;;;;;4.13;2.50;;;;;;;;;;5010040;28;20510;-64
2021/08/30 03:02:18;;;;;;;4.10;3.30;;;;;;;;;;4995435;28;20408;-64
2021/08/30 03:04:44;;;;;;;3.57;2.67;;;;;;;;;;4995239;28;20973;-64
2021/08/30 03:07:11;;;;;;;3.90;2.90;;;;;;;;;;4995636;28;20409;-64
2021/08/30 03:09:37;;;;;;;4.30;3.10;;;;;;;;;;4995257;28;20808;-64
2021/08/30 03:12:03;;;;;;;4.47;3.47;;;;;;;;;;4995565;28;20915;-63
2021/08/30 03:14:29;;;;;;;3.93;2.90;;;;;;;;;;4996778;28;20411;-64
2021/08/30 03:17:05;;;;;;;4.80;3.30;;;;;;;;;;5015082;28;20432;-63
2021/08/30 03:19:32;;;;;;;5.13;3.50;;;;;;;;;;5003133;28;20478;-63
2021/08/30 03:22:01;;;;;;;4.30;3.33;;;;;;;;;;4994882;28;20934;-65
2021/08/30 03:24:28;;;;;;;5.53;3.90;;;;;;;;;;5002518;28;20451;-65
2021/08/30 03:26:55;;;;;;;4.27;2.83;;;;;;;;;;5014728;28;20454;-64
2021/08/30 03:29:22;;;;;;;5.50;3.40;;;;;;;;;;5013897;28;20503;-63
2021/08/30 03:31:49;;;;;;;4.70;3.23;;;;;;;;;;5014391;28;20444;-63
2021/08/30 03:34:16;;;;;;;4.67;3.60;;;;;;;;;;5014724;28;20403;-64
2021/08/30 03:36:43;;;;;;;4.57;2.50;;;;;;;;;;4995354;28;20432;-63
2021/08/30 03:39:09;;;;;;;6.70;3.53;;;;;;;;;;4994624;28;20447;-63
2021/08/30 03:41:36;;;;;;;5.23;3.33;;;;;;;;;;5012608;28;20871;-63
2021/08/30 03:44:03;;;;;;;5.63;3.70;;;;;;;;;;5015642;28;20466;-63
2021/08/30 03:46:29;;;;;;;4.80;3.20;;;;;;;;;;5013743;28;20439;-63
2021/08/30 03:48:55;;;;;;;6.80;3.70;;;;;;;;;;5014361;28;20526;-65
2021/08/30 03:51:22;;;;;;;5.43;4.13;;;;;;;;;;5013361;28;20841;-64
2021/08/30 03:53:49;;;;;;;4.47;3.13;;;;;;;;;;5011276;28;20443;-64
2021/08/30 03:56:16;;;;;;;5.00;3.50;;;;;;;;;;5014117;28;20410;-63
2021/08/30 03:58:43;;;;;;;3.70;2.80;;;;;;;;;;5012599;28;20819;-64
2021/08/30 04:01:09;;;;;;;5.47;3.47;;;;;;;;;;5014160;28;20478;-64
2021/08/30 04:03:37;;;;;;;4.43;2.37;;;;;;;;;;5001111;28;20515;-63
2021/08/30 04:06:05;;;;;;;4.73;3.17;;;;;;;;;;4996490;28;20424;-63
2021/08/30 04:08:31;;;;;;;3.80;2.80;;;;;;;;;;5013913;28;20461;-63
2021/08/30 04:10:59;;;;;;;3.80;2.50;;;;;;;;;;5014351;28;20480;-63
2021/08/30 04:13:25;;;;;;;6.27;2.80;;;;;;;;;;5013846;28;20514;-63
2021/08/30 04:15:51;;;;;;;3.67;3.30;;;;;;;;;;5014714;28;20404;-63
2021/08/30 04:18:17;;;;;;;5.93;2.97;;;;;;;;;;5013736;28;21019;-63
2021/08/30 04:20:43;;;;;;;3.83;2.60;;;;;;;;;;5014776;28;20435;-64
2021/08/30 04:23:09;;;;;;;3.50;2.67;;;;;;;;;;5005044;28;20440;-63
2021/08/30 04:25:35;;;;;;;3.50;2.37;;;;;;;;;;4995008;28;20401;-63
2021/08/30 04:28:01;;;;;;;2.57;2.37;;;;;;;;;;5007798;28;20793;-63
2021/08/30 04:30:27;;;;;;;2.67;1.90;;;;;;;;;;5014471;28;20396;-63
2021/08/30 04:32:55;;;;;;;2.53;2.00;;;;;;;;;;5013338;28;20430;-63
2021/08/30 04:35:21;;;;;;;3.90;2.20;;;;;;;;;;5013801;28;20486;-63
2021/08/30 04:37:47;;;;;;;3.50;2.30;;;;;;;;;;5012780;28;20474;-64
2021/08/30 04:40:14;;;;;;;3.30;2.40;;;;;;;;;;5013696;28;20400;-63
2021/08/30 04:42:40;;;;;;;3.23;2.33;;;;;;;;;;5010222;28;20428;-64
2021/08/30 04:45:06;;;;;;;2.90;2.17;;;;;;;;;;5013599;28;20795;-65
2021/08/30 04:47:33;;;;;;;3.43;2.30;;;;;;;;;;5009700;28;20424;-65
2021/08/30 04:49:59;;;;;;;2.37;2.10;;;;;;;;;;4993841;28;20409;-63
2021/08/30 04:52:25;;;;;;;3.13;2.10;;;;;;;;;;4997931;28;20405;-64
2021/08/30 04:54:51;;;;;;;3.37;2.30;;;;;;;;;;5017365;28;20399;-64
2021/08/30 04:57:17;;;;;;;2.20;1.60;;;;;;;;;;5016832;28;20765;-66
2021/08/30 04:59:43;;;;;;;3.30;2.20;;;;;;;;;;5016431;28;20493;-63
2021/08/30 05:02:09;;;;;;;6.37;4.37;;;;;;;;;;5017240;28;20400;-64
2021/08/30 05:04:36;;;;;;;4.40;2.17;;;;;;;;;;5016604;28;20462;-63
2021/08/30 05:07:02;;;;;;;3.20;2.10;;;;;;;;;;5017182;28;20442;-64
2021/08/30 05:09:29;;;;;;;2.83;2.10;;;;;;;;;;5016277;28;20534;-64
2021/08/30 05:11:55;;;;;;;2.67;2.10;;;;;;;;;;5017365;28;20761;-65
2021/08/30 05:14:21;;;;;;;3.80;2.50;;;;;;;;;;5016253;28;20438;-64
2021/08/30 05:16:47;;;;;;;3.70;1.70;;;;;;;;;;5016180;28;20928;-64
2021/08/30 05:19:13;;;;;;;4.07;1.87;;;;;;;;;;5015538;28;20966;-64
2021/08/30 05:21:39;;;;;;;3.97;2.33;;;;;;;;;;5015271;28;20435;-67
2021/08/30 05:24:09;;;;;;;2.87;2.07;;;;;;;;;;5015467;28;20460;-69
2021/08/30 05:26:35;;;;;;;3.40;2.50;;;;;;;;;;5017053;28;20435;-67
2021/08/30 05:29:02;;;;;;;3.00;2.10;;;;;;;;;;4985908;28;20451;-69
2021/08/30 05:31:28;;;;;;;2.73;2.03;;;;;;;;;;5013826;28;20423;-63
2021/08/30 05:33:57;;;;;;;4.50;2.13;;;;;;;;;;5019833;28;20435;-64
2021/08/30 05:36:24;;;;;;;3.73;2.50;;;;;;;;;;5016667;28;20423;-67
2021/08/30 05:38:50;;;;;;;5.27;2.80;;;;;;;;;;5015253;28;20467;-68
2021/08/30 05:41:16;;;;;;;3.20;1.93;;;;;;;;;;5016144;28;20498;-67
2021/08/30 05:43:42;;;;;;;2.53;2.10;;;;;;;;;;5015009;28;20455;-66
2021/08/30 05:46:27;;;;;;;4.50;2.30;;;;;;;;;;5016307;28;20477;-67
2021/08/30 05:48:53;;;;;;;2.90;1.70;;;;;;;;;;5013956;28;20451;-67
2021/08/30 05:51:19;;;;;;;4.53;2.30;;;;;;;;;;5016765;28;20446;-69
2021/08/30 05:53:45;;;;;;;3.33;1.97;;;;;;;;;;5011338;28;20443;-65
2021/08/30 05:56:11;;;;;;;4.30;2.63;;;;;;;;;;5002172;28;20416;-65
2021/08/30 05:58:37;;;;;;;3.17;1.80;;;;;;;;;;5004813;28;20497;-65
2021/08/30 06:01:04;;;;;;;3.00;2.20;;;;;;;;;;5003289;28;20435;-66
2021/08/30 06:03:30;;;;;;;3.30;2.40;;;;;;;;;;5002479;28;20826;-66
2021/08/30 06:05:56;;;;;;;3.17;2.07;;;;;;;;;;5013401;28;20424;-68
2021/08/30 06:08:22;;;;;;;4.07;1.97;;;;;;;;;;5013583;28;20443;-67
2021/08/30 06:10:48;;;;;;;3.07;2.00;;;;;;;;;;5016055;28;20400;-69
2021/08/30 06:13:15;;;;;;;3.93;2.53;;;;;;;;;;5015112;28;20428;-70
2021/08/30 06:15:41;;;;;;;3.53;2.80;;;;;;;;;;5016410;28;20765;-66
2021/08/30 06:18:07;;;;;;;2.23;1.80;;;;;;;;;;5014252;28;20451;-68
2021/08/30 06:20:33;;;;;;;2.37;1.90;;;;;;;;;;5015282;28;20423;-69
2021/08/30 06:22:59;;;;;;;2.63;1.80;;;;;;;;;;5014958;28;20509;-69
2021/08/30 06:25:25;;;;;;;2.03;1.43;;;;;;;;;;5016018;28;20447;-68
2021/08/30 06:27:52;;;;;;;2.70;1.73;;;;;;;;;;5015073;28;20856;-69
2021/08/30 06:30:18;;;;;;;2.17;1.50;;;;;;;;;;5015793;28;20432;-68
2021/08/30 06:32:44;;;;;;;2.80;1.53;;;;;;;;;;5015943;28;20978;-68
2021/08/30 06:35:10;;;;;;;2.80;1.90;;;;;;;;;;5014749;28;20431;-69
2021/08/30 06:37:38;;;;;;;1.80;1.20;;;;;;;;;;5015469;28;20412;-70
2021/08/30 06:40:05;;;;;;;2.90;1.70;;;;;;;;;;5014701;28;20458;-72
2021/08/30 06:42:31;;;;;;;2.27;1.80;;;;;;;;;;5015663;28;20885;-70
2021/08/30 06:44:57;;;;;;;2.80;1.50;;;;;;;;;;5014419;28;20455;-68
2021/08/30 06:47:23;;;;;;;2.13;1.70;;;;;;;;;;5018569;28;20753;-70
2021/08/30 06:49:49;;;;;;;4.27;1.80;;;;;;;;;;5014424;28;20451;-69
2021/08/30 06:52:15;;;;;;;2.17;1.30;;;;;;;;;;5014703;28;20446;-68
2021/08/30 06:54:41;;;;;;;2.77;1.20;;;;;;;;;;5007455;28;20955;-69
2021/08/30 06:57:07;;;;;;;1.60;1.40;;;;;;;;;;5012367;28;20435;-70
2021/08/30 06:59:33;;;;;;;2.00;1.30;;;;;;;;;;5012217;28;20459;-71
2021/08/30 07:02:02;;;;;;;2.33;1.17;;;;;;;;;;5010216;28;20455;-71
2021/08/30 07:04:28;;;;;;;2.10;1.43;;;;;;;;;;5008580;28;20482;-70
2021/08/30 07:06:54;;;;;;;1.93;1.20;;;;;;;;;;5010101;28;20897;-72
2021/08/30 07:09:20;;;;;;;3.30;1.40;;;;;;;;;;5007785;28;20444;-73
2021/08/30 07:11:48;;;;;;;1.90;1.30;;;;;;;;;;4992765;28;20424;-71
2021/08/30 07:14:14;;;;;;;2.50;1.43;;;;;;;;;;5007583;28;20972;-71
2021/08/30 07:16:40;;;;;;;1.50;1.00;;;;;;;;;;5007943;28;20441;-69
2021/08/30 07:19:06;;;;;;;1.70;1.17;;;;;;;;;;5010583;28;20492;-71
2021/08/30 07:21:32;;;;;;;2.53;1.03;;;;;;;;;;5013362;28;20459;-71
2021/08/30 07:23:58;;;;;;;1.87;1.10;;;;;;;;;;5012386;28;20459;-67
2021/08/30 07:26:24;;;;;;;1.87;0.97;;;;;;;;;;5012634;28;20412;-71
2021/08/30 07:28:50;;;;;;;8.10;1.03;;;;;;;;;;5009237;28;20817;-72
2021/08/30 07:31:16;;;;;;;1.93;0.87;;;;;;;;;;5011205;28;20442;-71
2021/08/30 07:33:42;;;;;;;2.97;1.17;;;;;;;;;;4991555;28;20452;-72
2021/08/30 07:36:08;;;;;;;1.77;0.93;;;;;;;;;;5012959;28;20745;-71
2021/08/30 07:38:34;;;;;;;1.40;0.90;;;;;;;;;;5011307;28;20470;-68
2021/08/30 07:41:01;;;;;;;2.40;2.20;;;;;;;;;;5008883;28;20485;-70
2021/08/30 07:43:27;;;;;;;2.43;1.33;;;;;;;;;;5012502;28;20474;-67
2021/08/30 07:45:53;;;;;;;2.83;1.27;;;;;;;;;;5011745;28;20963;-66
2021/08/30 07:48:19;;;;;;;4.80;1.60;;;;;;;;;;4993300;28;20448;-66
2021/08/30 07:50:45;;;;;;;1.70;1.40;;;;;;;;;;5009751;28;20835;-72
2021/08/30 07:53:11;;;;;;;1.90;1.37;;;;;;;;;;5009322;28;20481;-70
2021/08/30 07:55:37;;;;;;;2.00;1.50;;;;;;;;;;5010257;28;20442;-69
2021/08/30 07:58:04;;;;;;;3.20;1.90;;;;;;;;;;5012057;28;20443;-67
2021/08/30 08:00:30;;;;;;;2.00;1.50;;;;;;;;;;5010859;28;20459;-67
2021/08/30 08:02:56;;;;;;;1.53;1.07;;;;;;;;;;5008904;28;20444;-72
2021/08/30 08:05:22;;;;;;;2.00;1.47;;;;;;;;;;5006942;28;20459;-65
2021/08/30 08:07:49;;;;;;;3.30;2.33;;;;;;;;;;5010774;28;20813;-64
2021/08/30 08:10:15;;;;;;;5.33;1.63;;;;;;;;;;5010801;28;20431;-65
2021/08/30 08:12:41;;;;;;;3.20;2.13;;;;;;;;;;5011530;28;20423;-66
2021/08/30 08:15:07;;;;;;;3.50;1.83;;;;;;;;;;5009903;28;20435;-66
2021/08/30 08:17:37;;;;;;;2.60;1.70;;;;;;;;;;5012150;28;20419;-64
2021/08/30 08:20:04;;;;;;;3.00;2.13;;;;;;;;;;5011347;28;20496;-64
2021/08/30 08:22:30;;;;;;;5.27;2.03;;;;;;;;;;5011312;28;20778;-64
2021/08/30 08:24:58;;;;;;;2.87;2.20;;;;;;;;;;5008506;28;20463;-64
2021/08/30 08:27:24;;;;;;;2.90;2.10;;;;;;;;;;5010159;28;20510;-64
2021/08/30 08:29:50;;;;;;;3.30;1.63;;;;;;;;;;5008943;28;20875;-65
2021/08/30 08:32:16;;;;;;;2.23;1.73;;;;;;;;;;5007379;28;20447;-64
2021/08/30 08:34:42;;;;;;;2.80;2.27;;;;;;;;;;5007729;28;20434;-70
2021/08/30 08:37:09;;;;;;;3.10;1.70;;;;;;;;;;5009645;28;20482;-67
2021/08/30 08:39:35;;;;;;;4.67;2.37;;;;;;;;;;5004767;28;20463;-67
2021/08/30 08:42:02;;;;;;;2.40;1.80;;;;;;;;;;5007606;28;20450;-65
2021/08/30 08:44:28;;;;;;;4.13;1.87;;;;;;;;;;5007089;28;20469;-67
2021/08/30 08:46:54;;;;;;;2.60;1.60;;;;;;;;;;5010984;28;20971;-68
2021/08/30 08:49:21;;;;;;;2.40;1.73;;;;;;;;;;5008943;28;20882;-64
2021/08/30 08:51:47;;;;;;;2.40;1.60;;;;;;;;;;5008905;28;20431;-65
2021/08/30 08:54:13;;;;;;;3.53;2.43;;;;;;;;;;5007165;28;20468;-65
2021/08/30 08:56:40;;;;;;;3.47;1.97;;;;;;;;;;5006917;28;20893;-66
2021/08/30 08:59:06;;;;;;;1.97;1.50;;;;;;;;;;4999375;28;20456;-67
2021/08/30 09:01:35;;;;;;;2.10;1.30;;;;;;;;;;5010533;28;20526;-65
2021/08/30 09:04:01;;;;;;;3.20;1.70;;;;;;;;;;5010529;28;20455;-64
2021/08/30 09:06:42;;;;;;;1.83;1.13;;;;;;;;;;5008278;28;20847;-65
2021/08/30 09:09:14;;;;;;;1.80;1.30;;;;;;;;;;5007307;28;20455;-68
2021/08/30 09:11:44;;;;;;;2.40;1.40;;;;;;;;;;5008036;28;21034;-71
2021/08/30 09:14:13;;;;;;;2.67;1.40;;;;;;;;;;5010293;28;20411;-67
2021/08/30 09:16:39;;;;;;;2.23;1.40;;;;;;;;;;5006332;28;20432;-69
2021/08/30 09:19:06;;;;;;;1.70;1.17;;;;;;;;;;5010511;28;20451;-71
2021/08/30 09:21:32;;;;;;;3.10;1.60;;;;;;;;;;5013008;28;20442;-71
2021/08/30 09:24:08;;;;;;;1.80;1.47;;;;;;;;;;5013471;28;20455;-72
2021/08/30 09:26:42;;;;;;;1.83;1.43;;;;;;;;;;5012707;28;20466;-69
2021/08/30 09:29:13;;;;;;;2.87;1.30;;;;;;;;;;5008090;28;20463;-68
2021/08/30 09:31:40;;;;;;;1.73;1.10;;;;;;;;;;5010252;28;20466;-68
2021/08/30 09:34:10;;;;;;;2.73;1.50;;;;;;;;;;5009938;28;20450;-67
2021/08/30 09:36:43;;;;;;;2.40;1.10;;;;;;;;;;5009312;28;20459;-66
2021/08/30 09:39:10;;;;;;;2.03;1.23;;;;;;;;;;5012781;28;20459;-66
2021/08/30 09:41:43;;;;;;;5.30;1.20;;;;;;;;;;5012407;28;20473;-66
2021/08/30 09:44:09;;;;;;;3.00;1.50;;;;;;;;;;5013060;28;20451;-70
2021/08/30 09:46:35;;;;;;;2.30;1.10;;;;;;;;;;5012574;28;20510;-67
2021/08/30 09:49:08;;;;;;;1.87;0.90;;;;;;;;;;5010721;28;20459;-67
2021/08/30 09:51:38;;;;;;;3.47;1.37;;;;;;;;;;5008575;28;20462;-66
2021/08/30 09:54:04;;;;;;;1.90;1.17;;;;;;;;;;5009324;28;20939;-67
2021/08/30 09:56:36;;;;;;;2.27;1.10;;;;;;;;;;5009240;28;20459;-68
2021/08/30 09:59:02;;;;;;;2.47;1.20;;;;;;;;;;4994297;28;20456;-69
2021/08/30 10:01:28;;;;;;;1.50;0.80;;;;;;;;;;5012095;28;20800;-67
2021/08/30 10:03:55;;;;;;;1.97;0.97;;;;;;;;;;5011771;28;20518;-67
2021/08/30 10:06:21;;;;;;;2.37;1.23;;;;;;;;;;5002662;28;21076;-70
2021/08/30 10:08:47;;;;;;;1.90;1.27;;;;;;;;;;5015138;28;20799;-70
2021/08/30 10:11:13;;;;;;;2.03;1.07;;;;;;;;;;5008222;28;21169;-70
2021/08/30 10:13:41;;;;;;;1.43;1.00;;;;;;;;;;5013500;28;20881;-70
2021/08/30 10:16:08;;;;;;;1.80;1.10;;;;;;;;;;5009440;28;20993;-68
2021/08/30 10:18:34;;;;;;;1.80;1.00;;;;;;;;;;5012066;28;20593;-67
2021/08/30 10:21:12;;;;;;;2.93;1.10;;;;;;;;;;5010963;28;20471;-71
2021/08/30 10:23:38;;;;;;;1.53;1.07;;;;;;;;;;5009423;28;20801;-69
2021/08/30 10:26:04;;;;;;;1.50;0.80;;;;;;;;;;5010774;28;20433;-68
2021/08/30 10:28:35;;;;;;;1.73;1.20;;;;;;;;;;5014610;28;20444;-68
2021/08/30 10:31:01;;;;;;;1.60;1.00;;;;;;;;;;5009176;28;20420;-68
2021/08/30 10:33:35;;;;;;;2.20;1.00;;;;;;;;;;5008871;28;20888;-71
2021/08/30 10:36:10;;;;;;;1.63;1.00;;;;;;;;;;5012849;28;20438;-69
2021/08/30 10:38:36;;;;;;;4.07;1.30;;;;;;;;;;5014684;28;20455;-69
2021/08/30 10:41:13;;;;;;;1.80;1.13;;;;;;;;;;5007702;28;20466;-69
2021/08/30 10:43:42;;;;;;;1.80;1.20;;;;;;;;;;5015117;28;20866;-69
2021/08/30 10:46:13;;;;;;;2.33;1.27;;;;;;;;;;4992794;28;20444;-68
2021/08/30 10:48:40;;;;;;;2.53;1.30;;;;;;;;;;4988375;28;21248;-68
2021/08/30 10:51:33;;;;;;;2.13;1.33;;;;;;;;;;5011140;28;20413;-68
2021/08/30 10:54:00;;;;;;;1.90;1.07;;;;;;;;;;5003800;28;20564;-70
2021/08/30 10:56:29;;;;;;;2.07;1.13;;;;;;;;;;5003578;28;20718;-69
2021/08/30 10:58:58;;;;;;;1.70;1.00;;;;;;;;;;5010313;28;20439;-69
2021/08/30 11:01:24;;;;;;;1.83;1.30;;;;;;;;;;5012268;28;20796;-69
2021/08/30 11:03:54;;;;;;;1.80;1.13;;;;;;;;;;5007349;28;20463;-69
2021/08/30 11:06:20;;;;;;;1.53;0.80;;;;;;;;;;5007019;28;20514;-67
2021/08/30 11:08:46;;;;;;;2.57;1.67;;;;;;;;;;5007848;28;20448;-65
2021/08/30 11:11:12;;;;;;;3.37;1.50;;;;;;;;;;5010108;28;20420;-65
2021/08/30 11:13:39;;;;;;;2.10;1.27;;;;;;;;;;5010285;28;20427;-65
2021/08/30 11:16:15;;;;;;;1.97;1.37;;;;;;;;;;5006724;28;20435;-65
2021/08/30 11:18:52;;;;;;;2.53;1.43;;;;;;;;;;5011831;28;20446;-65
2021/08/30 11:21:29;;;;;;;1.80;1.10;;;;;;;;;;5006758;28;20431;-66
2021/08/30 11:23:55;;;;;;;4.17;2.20;;;;;;;;;;5008359;28;20517;-66
2021/08/30 11:26:22;;;;;;;2.43;1.30;;;;;;;;;;5010294;28;20432;-66
2021/08/30 11:28:58;;;;;;;3.10;1.40;;;;;;;;;;5007948;28;20490;-66
2021/08/30 11:31:25;;;;;;;2.60;1.50;;;;;;;;;;5010771;28;20431;-66
2021/08/30 11:33:51;;;;;;;2.63;1.43;;;;;;;;;;5004757;28;20552;-66
2021/08/30 11:36:17;;;;;;;1.63;1.10;;;;;;;;;;5003467;28;20424;-66
2021/08/30 11:38:57;;;;;;;2.10;1.57;;;;;;;;;;5003071;28;20475;-66
2021/08/30 11:41:23;;;;;;;3.90;2.13;;;;;;;;;;5006631;28;20440;-66
2021/08/30 11:44:02;;;;;;;2.50;1.50;;;;;;;;;;5005323;28;20484;-70
2021/08/30 11:46:28;;;;;;;1.97;1.00;;;;;;;;;;5006353;28;20422;-68
2021/08/30 11:48:55;;;;;;;2.00;1.33;;;;;;;;;;5009959;28;20486;-68
2021/08/30 11:51:24;;;;;;;2.43;1.30;;;;;;;;;;5010456;28;20412;-67
2021/08/30 11:53:50;;;;;;;5.53;1.60;;;;;;;;;;4993771;28;20424;-68
2021/08/30 11:56:16;;;;;;;2.67;1.43;;;;;;;;;;5010646;28;20420;-68
2021/08/30 11:58:42;;;;;;;3.70;1.93;;;;;;;;;;5005910;28;20956;-67
2021/08/30 12:01:08;;;;;;;2.13;1.67;;;;;;;;;;5010406;28;20422;-68
2021/08/30 12:03:44;;;;;;;2.10;1.67;;;;;;;;;;5010911;28;20787;-68
2021/08/30 12:06:14;;;;;;;2.37;1.50;;;;;;;;;;5011256;28;20403;-67
2021/08/30 12:08:49;;;;;;;2.00;1.50;;;;;;;;;;5011122;28;20527;-68
2021/08/30 12:11:15;;;;;;;2.70;1.30;;;;;;;;;;5008863;28;20430;-67
2021/08/30 12:14:02;;;;;;;1.70;1.50;;;;;;;;;;5006088;28;20443;-67
2021/08/30 12:16:28;;;;;;;1.80;1.30;;;;;;;;;;5004397;28;21115;-68
2021/08/30 12:18:55;;;;;;;2.10;1.30;;;;;;;;;;5008330;28;20473;-69
2021/08/30 12:21:47;;;;;;;2.30;1.47;;;;;;;;;;5004445;28;20423;-68
2021/08/30 12:24:18;;;;;;;2.13;1.73;;;;;;;;;;5004264;28;20537;-67
2021/08/30 12:26:46;;;;;;;1.70;1.40;;;;;;;;;;5006689;28;20865;-68
2021/08/30 12:29:12;;;;;;;2.13;1.57;;;;;;;;;;4994419;28;20465;-68
2021/08/30 12:31:38;;;;;;;1.90;1.60;;;;;;;;;;5008626;28;20838;-68
2021/08/30 12:34:06;;;;;;;2.83;1.93;;;;;;;;;;5007100;28;20767;-67
2021/08/30 12:36:32;;;;;;;2.00;1.57;;;;;;;;;;5009286;28;20991;-67
2021/08/30 12:38:58;;;;;;;2.17;1.70;;;;;;;;;;5007361;28;20529;-68
2021/08/30 12:41:24;;;;;;;3.43;2.20;;;;;;;;;;5004196;28;20416;-68
2021/08/30 12:43:50;;;;;;;3.40;2.80;;;;;;;;;;5007409;28;21048;-67
2021/08/30 12:46:16;;;;;;;2.40;1.90;;;;;;;;;;5007881;28;20909;-67
2021/08/30 12:48:43;;;;;;;2.43;2.07;;;;;;;;;;5006990;28;20446;-68
2021/08/30 12:51:10;;;;;;;2.57;2.13;;;;;;;;;;5008255;28;20919;-69
2021/08/30 12:53:37;;;;;;;3.20;2.57;;;;;;;;;;4989084;28;20426;-67
2021/08/30 12:56:03;;;;;;;2.87;2.37;;;;;;;;;;5009043;28;20413;-67
2021/08/30 12:58:29;;;;;;;6.97;2.37;;;;;;;;;;5009007;28;20439;-68
2021/08/30 13:00:55;;;;;;;2.13;1.50;;;;;;;;;;5006946;28;20458;-68
2021/08/30 13:03:21;;;;;;;2.40;1.97;;;;;;;;;;5008284;28;20418;-67
2021/08/30 13:05:47;;;;;;;3.20;2.30;;;;;;;;;;5009199;28;20590;-67
2021/08/30 13:08:15;;;;;;;2.90;2.13;;;;;;;;;;5007449;28;20451;-67
2021/08/30 13:10:42;;;;;;;2.57;2.07;;;;;;;;;;5008165;28;20786;-67
2021/08/30 13:13:08;;;;;;;2.80;2.50;;;;;;;;;;5003950;28;20519;-67
2021/08/30 13:15:35;;;;;;;3.07;2.20;;;;;;;;;;5012248;28;20770;-68
2021/08/30 13:18:01;;;;;;;2.63;2.27;;;;;;;;;;5008748;28;20466;-67
2021/08/30 13:20:28;;;;;;;2.80;1.57;;;;;;;;;;5013214;28;21213;-67
2021/08/30 13:22:54;;;;;;;2.33;1.60;;;;;;;;;;5011439;28;20558;-68
2021/08/30 13:25:21;;;;;;;2.13;1.63;;;;;;;;;;5013458;28;20474;-69
2021/08/30 13:27:49;;;;;;;1.60;1.20;;;;;;;;;;5013281;28;20754;-69
2021/08/30 13:30:16;;;;;;;1.93;1.40;;;;;;;;;;5010751;28;20431;-67
2021/08/30 13:32:43;;;;;;;3.73;1.50;;;;;;;;;;5012934;28;21247;-70
2021/08/30 13:35:10;;;;;;;2.00;1.57;;;;;;;;;;5014169;28;20434;-68
2021/08/30 13:37:36;;;;;;;5.00;1.70;;;;;;;;;;5009797;28;20435;-66
2021/08/30 13:40:02;;;;;;;2.43;1.63;;;;;;;;;;5013226;28;20416;-66
2021/08/30 13:42:28;;;;;;;1.90;1.47;;;;;;;;;;5011618;28;20463;-66
2021/08/30 13:44:54;;;;;;;2.63;1.73;;;;;;;;;;5012653;28;20545;-65
2021/08/30 13:47:20;;;;;;;2.10;1.53;;;;;;;;;;5011679;28;20422;-65
2021/08/30 13:49:46;;;;;;;1.83;1.37;;;;;;;;;;5011477;28;20438;-66
2021/08/30 13:52:13;;;;;;;2.50;1.93;;;;;;;;;;5013512;28;20425;-65
2021/08/30 13:54:39;;;;;;;3.03;1.30;;;;;;;;;;5013138;28;20427;-66
2021/08/30 13:57:05;;;;;;;2.30;1.93;;;;;;;;;;5008930;28;20996;-66
2021/08/30 13:59:31;;;;;;;2.07;1.50;;;;;;;;;;5007190;28;20986;-66
2021/08/30 14:01:58;;;;;;;2.23;1.57;;;;;;;;;;5013588;28;20930;-66
2021/08/30 14:04:24;;;;;;;2.97;1.43;;;;;;;;;;5009309;28;20826;-66
2021/08/30 14:06:50;;;;;;;2.40;1.40;;;;;;;;;;5011396;28;20777;-66
2021/08/30 14:09:16;;;;;;;5.43;1.80;;;;;;;;;;5010479;28;20948;-66
2021/08/30 14:11:42;;;;;;;1.97;1.50;;;;;;;;;;5009714;28;21131;-66
2021/08/30 14:14:13;;;;;;;6.50;1.63;;;;;;;;;;5009339;28;20419;-66
2021/08/30 14:16:40;;;;;;;2.10;1.40;;;;;;;;;;5007947;28;20940;-66
2021/08/30 14:19:07;;;;;;;1.77;1.20;;;;;;;;;;5010174;28;20783;-66
2021/08/30 14:21:33;;;;;;;2.73;1.30;;;;;;;;;;5012533;28;20427;-65
2021/08/30 14:23:59;;;;;;;1.67;1.13;;;;;;;;;;5010416;28;21046;-66
2021/08/30 14:26:25;;;;;;;1.80;1.40;;;;;;;;;;5013168;28;20936;-66
2021/08/30 14:28:51;;;;;;;2.10;1.47;;;;;;;;;;5008501;28;20486;-66
2021/08/30 14:31:17;;;;;;;1.87;1.20;;;;;;;;;;5012756;28;20415;-66
2021/08/30 14:33:43;;;;;;;2.40;1.30;;;;;;;;;;5011518;28;20519;-67
2021/08/30 14:36:09;;;;;;;2.60;1.10;;;;;;;;;;5011773;28;20478;-66
2021/08/30 14:38:35;;;;;;;1.77;1.20;;;;;;;;;;5010297;28;20505;-66
2021/08/30 14:41:02;;;;;;;1.57;0.90;;;;;;;;;;4993268;28;20506;-66
2021/08/30 14:43:30;;;;;;;1.80;1.10;;;;;;;;;;5011574;28;20416;-66
2021/08/30 14:45:56;;;;;;;1.60;1.00;;;;;;;;;;5012293;28;20427;-66
2021/08/30 14:48:22;;;;;;;2.10;1.00;;;;;;;;;;5010553;28;20428;-66
2021/08/30 14:50:48;;;;;;;1.80;1.00;;;;;;;;;;5005505;28;20435;-65